Pedro Andre — CUDD4 — position and weather

sailwx.info

Track history (hours):
 
Tides and Currents Weather Stations Pressure Air Temp Water Temp Dewpoint Dewpoint Depression Visibility Wind Speed Wind Dir Waves Ship Positions

Pedro Andre

Last reported at 2017-Nov-07 16:08 UTC. Time now 2017-Nov-22 21:44 UTC.
Position N 41°13' W 008°44'.
Warning: this ship's position is 15 days out of date.

Length 22 m.

Type: Fishing. MMSI: 263500208.

Date/timePositionNaut miles runAvg speedWind from/ knotsBaromVisibWave heightAir tempDewpointWater temp
2017-Nov-07 16:08N 41°13' W 008°44'110.4
2017-Nov-07 16:00N 41°12' W 008°44'1 2.9
2017-Nov-07 15:30N 41°11' W 008°42'0 0.0
2017-Nov-07 15:00N 41°11' W 008°42'0 0.0
2017-Nov-07 14:30N 41°11' W 008°42'0 0.0
2017-Nov-07 14:00N 41°11' W 008°42'0 0.0
2017-Nov-07 13:30N 41°11' W 008°42'0 0.0
2017-Nov-07 13:00N 41°11' W 008°42'0 0.0
2017-Nov-07 12:30N 41°11' W 008°42'0 0.0
2017-Nov-07 12:00N 41°11' W 008°42'0 0.0
2017-Nov-07 11:30N 41°11' W 008°42'0 0.0
2017-Nov-07 11:00N 41°11' W 008°42'0 0.0
2017-Nov-07 10:30N 41°11' W 008°42'0 0.0
2017-Nov-07 10:00N 41°11' W 008°42'0 0.0
2017-Nov-07 09:30N 41°11' W 008°42'0 0.0
2017-Nov-07 09:00N 41°11' W 008°42'0 0.0
2017-Nov-07 08:30N 41°11' W 008°42'0 0.0
2017-Nov-07 08:00N 41°11' W 008°42'0 0.0
2017-Nov-07 07:30N 41°11' W 008°42'0 0.0
2017-Nov-07 07:00N 41°11' W 008°42'0 0.0
2017-Nov-07 06:28N 41°11' W 008°42'0 0.0
2017-Nov-07 06:00N 41°11' W 008°42'0 0.0
2017-Nov-07 05:31N 41°11' W 008°42'0 0.0
2017-Nov-07 05:01N 41°11' W 008°42'0 0.0
2017-Nov-07 04:31N 41°11' W 008°42'0 0.0
2017-Nov-07 04:01N 41°11' W 008°42'0 0.0
2017-Nov-07 03:31N 41°11' W 008°42'0 0.0
2017-Nov-07 03:01N 41°11' W 008°42'0 0.0
2017-Nov-07 02:30N 41°11' W 008°42'0 0.0
2017-Nov-07 02:00N 41°11' W 008°42'0 0.0
2017-Nov-07 01:31N 41°11' W 008°42'0 0.0
2017-Nov-07 01:00N 41°11' W 008°42'0 0.0
2017-Nov-07 00:31N 41°11' W 008°42'0 0.0
2017-Nov-07 00:01N 41°11' W 008°42'0 0.0
2017-Nov-06 23:31N 41°11' W 008°42'0 0.0
2017-Nov-06 23:01N 41°11' W 008°42'0 0.0
2017-Nov-06 22:31N 41°11' W 008°42'0 0.0
2017-Nov-06 22:01N 41°11' W 008°42'0 0.0
2017-Nov-06 21:30N 41°11' W 008°42'0 0.0
2017-Nov-06 21:01N 41°11' W 008°42'0 0.0
2017-Nov-06 20:31N 41°11' W 008°42'0 0.0
2017-Nov-06 02:30N 41°11' W 008°42'0 0.0
2017-Nov-06 02:00N 41°11' W 008°42'0 0.0
2017-Nov-06 01:30N 41°11' W 008°42'0 0.0
2017-Nov-06 01:01N 41°11' W 008°42'0 0.0
2017-Nov-06 00:31N 41°11' W 008°42'0 0.5
2017-Nov-06 00:01N 41°11' W 008°42'0 0.5
2017-Nov-05 23:31N 41°11' W 008°42'0 0.0
2017-Nov-05 23:00N 41°11' W 008°42'0 0.0
2017-Nov-05 22:30N 41°11' W 008°42'  
2017-Nov-03 09:52N 41°11' W 008°42'0 0.0
2017-Nov-03 09:30N 41°11' W 008°42'0 0.0
2017-Nov-03 09:00N 41°11' W 008°42'0 0.0
2017-Nov-03 08:30N 41°11' W 008°42'0 0.0
2017-Nov-03 08:00N 41°11' W 008°42'0 0.0
2017-Nov-03 07:30N 41°11' W 008°42'0 0.0
2017-Nov-03 07:01N 41°11' W 008°42'0 0.0
2017-Nov-03 06:31N 41°11' W 008°42'0 0.0
2017-Nov-03 06:01N 41°11' W 008°42'0 0.0
2017-Nov-03 05:30N 41°11' W 008°42'0 0.0
2017-Nov-03 05:00N 41°11' W 008°42'0 0.0
2017-Nov-03 04:31N 41°11' W 008°42'4 0.7
2017-Nov-02 22:47N 41°07' W 008°43'3 9.4
2017-Nov-02 22:31N 41°10' W 008°42'1 0.1
2017-Nov-02 09:15N 41°11' W 008°42'0 0.5
2017-Nov-02 09:00N 41°11' W 008°42'0 0.0
2017-Nov-02 08:30N 41°11' W 008°42'0 0.0
2017-Nov-02 08:00N 41°11' W 008°42'1 1.6
2017-Nov-02 07:30N 41°10' W 008°42'4 0.4
2017-Nov-01 23:21N 41°07' W 008°43'3 9.7
2017-Nov-01 23:00N 41°10' W 008°42'1 0.0
2017-Oct-31 08:22N 41°11' W 008°42'0 0.0
2017-Oct-31 08:00N 41°11' W 008°42'0 0.0
2017-Oct-31 07:30N 41°11' W 008°42'0 0.0
2017-Oct-31 07:00N 41°11' W 008°42'5 9.2
2017-Oct-31 06:30N 41°06' W 008°43'3 0.1
2017-Oct-29 23:11N 41°09' W 008°43'2 9.8
2017-Oct-29 23:00N 41°11' W 008°42'  
Track history (hours):
 
Tides and Currents Weather Stations Pressure Air Temp Water Temp Dewpoint Dewpoint Depression Visibility Wind Speed Wind Dir Waves Ship Positions

Pedro Andre

Last reported at 2017-Nov-07 16:08 UTC. Time now 2017-Nov-22 21:44 UTC.
Position N 41°13' W 008°44'.
Warning: this ship's position is 15 days out of date.

Length 22 m.

Type: Fishing. MMSI: 263500208.

Date/timePositionNaut miles runAvg speedWind from/ knotsBaromVisibWave heightAir tempDewpointWater temp
2017-Nov-07 16:08N 41°13' W 008°44'110.4
2017-Nov-07 16:00N 41°12' W 008°44'1 2.9
2017-Nov-07 15:30N 41°11' W 008°42'0 0.0
2017-Nov-07 15:00N 41°11' W 008°42'0 0.0
2017-Nov-07 14:30N 41°11' W 008°42'0 0.0
2017-Nov-07 14:00N 41°11' W 008°42'0 0.0
2017-Nov-07 13:30N 41°11' W 008°42'0 0.0
2017-Nov-07 13:00N 41°11' W 008°42'0 0.0
2017-Nov-07 12:30N 41°11' W 008°42'0 0.0
2017-Nov-07 12:00N 41°11' W 008°42'0 0.0
2017-Nov-07 11:30N 41°11' W 008°42'0 0.0
2017-Nov-07 11:00N 41°11' W 008°42'0 0.0
2017-Nov-07 10:30N 41°11' W 008°42'0 0.0
2017-Nov-07 10:00N 41°11' W 008°42'0 0.0
2017-Nov-07 09:30N 41°11' W 008°42'0 0.0
2017-Nov-07 09:00N 41°11' W 008°42'0 0.0
2017-Nov-07 08:30N 41°11' W 008°42'0 0.0
2017-Nov-07 08:00N 41°11' W 008°42'0 0.0
2017-Nov-07 07:30N 41°11' W 008°42'0 0.0
2017-Nov-07 07:00N 41°11' W 008°42'0 0.0
2017-Nov-07 06:28N 41°11' W 008°42'0 0.0
2017-Nov-07 06:00N 41°11' W 008°42'0 0.0
2017-Nov-07 05:31N 41°11' W 008°42'0 0.0
2017-Nov-07 05:01N 41°11' W 008°42'0 0.0
2017-Nov-07 04:31N 41°11' W 008°42'0 0.0
2017-Nov-07 04:01N 41°11' W 008°42'0 0.0
2017-Nov-07 03:31N 41°11' W 008°42'0 0.0
2017-Nov-07 03:01N 41°11' W 008°42'0 0.0
2017-Nov-07 02:30N 41°11' W 008°42'0 0.0
2017-Nov-07 02:00N 41°11' W 008°42'0 0.0
2017-Nov-07 01:31N 41°11' W 008°42'0 0.0
2017-Nov-07 01:00N 41°11' W 008°42'0 0.0
2017-Nov-07 00:31N 41°11' W 008°42'0 0.0
2017-Nov-07 00:01N 41°11' W 008°42'0 0.0
2017-Nov-06 23:31N 41°11' W 008°42'0 0.0
2017-Nov-06 23:01N 41°11' W 008°42'0 0.0
2017-Nov-06 22:31N 41°11' W 008°42'0 0.0
2017-Nov-06 22:01N 41°11' W 008°42'0 0.0
2017-Nov-06 21:30N 41°11' W 008°42'0 0.0
2017-Nov-06 21:01N 41°11' W 008°42'0 0.0
2017-Nov-06 20:31N 41°11' W 008°42'0 0.0
2017-Nov-06 02:30N 41°11' W 008°42'0 0.0
2017-Nov-06 02:00N 41°11' W 008°42'0 0.0
2017-Nov-06 01:30N 41°11' W 008°42'0 0.0
2017-Nov-06 01:01N 41°11' W 008°42'0 0.0
2017-Nov-06 00:31N 41°11' W 008°42'0 0.5
2017-Nov-06 00:01N 41°11' W 008°42'0 0.5
2017-Nov-05 23:31N 41°11' W 008°42'0 0.0
2017-Nov-05 23:00N 41°11' W 008°42'0 0.0
2017-Nov-05 22:30N 41°11' W 008°42'  
2017-Nov-03 09:52N 41°11' W 008°42'0 0.0
2017-Nov-03 09:30N 41°11' W 008°42'0 0.0
2017-Nov-03 09:00N 41°11' W 008°42'0 0.0
2017-Nov-03 08:30N 41°11' W 008°42'0 0.0
2017-Nov-03 08:00N 41°11' W 008°42'0 0.0
2017-Nov-03 07:30N 41°11' W 008°42'0 0.0
2017-Nov-03 07:01N 41°11' W 008°42'0 0.0
2017-Nov-03 06:31N 41°11' W 008°42'0 0.0
2017-Nov-03 06:01N 41°11' W 008°42'0 0.0
2017-Nov-03 05:30N 41°11' W 008°42'0 0.0
2017-Nov-03 05:00N 41°11' W 008°42'0 0.0
2017-Nov-03 04:31N 41°11' W 008°42'4 0.7
2017-Nov-02 22:47N 41°07' W 008°43'3 9.4
2017-Nov-02 22:31N 41°10' W 008°42'1 0.1
2017-Nov-02 09:15N 41°11' W 008°42'0 0.5
2017-Nov-02 09:00N 41°11' W 008°42'0 0.0
2017-Nov-02 08:30N 41°11' W 008°42'0 0.0
2017-Nov-02 08:00N 41°11' W 008°42'1 1.6
2017-Nov-02 07:30N 41°10' W 008°42'4 0.4
2017-Nov-01 23:21N 41°07' W 008°43'3 9.7
2017-Nov-01 23:00N 41°10' W 008°42'1 0.0
2017-Oct-31 08:22N 41°11' W 008°42'0 0.0
2017-Oct-31 08:00N 41°11' W 008°42'0 0.0
2017-Oct-31 07:30N 41°11' W 008°42'0 0.0
2017-Oct-31 07:00N 41°11' W 008°42'5 9.2
2017-Oct-31 06:30N 41°06' W 008°43'3 0.1
2017-Oct-29 23:11N 41°09' W 008°43'2 9.8
2017-Oct-29 23:00N 41°11' W 008°42'  

Dump ship's entire track history